Time;durP1;ratioP1;P1;durP2;ratioP2;P2;SDS_P1;SDS_P2;PMS_P1;PMS_P2;Temp;Humidity;BMP_temperature;BMP_pressure;BME280_temperature;BME280_humidity;BME280_pressure;Samples;Min_cycle;Max_cycle;Signal;HPM_P1;HPM_P2
2022/01/07 00:01:01;;;;;;;;;;;;;;;0.81;100.00;100907.94;4999059;23;19993;-74
2022/01/07 00:03:27;;;;;;;;;;;;;;;0.73;100.00;100904.84;4966611;28;19929;-75
2022/01/07 00:05:52;;;;;;;;;;;;;;;0.85;100.00;100900.84;4966854;28;19918;-75
2022/01/07 00:08:18;;;;;;;;;;;;;;;0.75;100.00;100896.97;5013903;23;19997;-75
2022/01/07 00:10:44;;;;;;;;;;;;;;;0.77;100.00;100908.16;5001077;28;19921;-74
2022/01/07 00:13:13;;;;;;;;;;;;;;;0.82;100.00;100890.59;5017023;28;19921;-73
2022/01/07 00:15:39;;;;;;;;;;;;;;;0.76;100.00;100890.88;5016591;28;19961;-74
2022/01/07 00:18:05;;;;;;;;;;;;;;;0.87;100.00;100880.00;5030088;23;19925;-74
2022/01/07 00:20:30;;;;;;;;;;;;;;;0.58;100.00;100874.34;5023708;28;19924;-74
2022/01/07 00:22:56;;;;;;;;;;;;;;;0.60;100.00;100882.91;5039910;28;19983;-75
2022/01/07 00:25:22;;;;;;;;;;;;;;;0.62;100.00;100879.34;5023283;28;19917;-74
2022/01/07 00:27:48;;;;;;;;;;;;;;;0.53;100.00;100871.94;5022283;28;19913;-74
2022/01/07 00:30:15;;;;;;;;;;;;;;;0.60;100.00;100867.31;5021946;28;19924;-74
2022/01/07 00:32:40;;;;;;;;;;;;;;;0.50;100.00;100869.50;5022628;28;19928;-73
2022/01/07 00:35:06;;;;;;;;;;;;;;;0.57;100.00;100872.66;5039101;28;19916;-74
2022/01/07 00:37:32;;;;;;;;;;;;;;;0.62;100.00;100866.34;5022578;28;19923;-74
2022/01/07 00:39:57;;;;;;;;;;;;;;;0.59;100.00;100865.63;5056639;28;20014;-74
2022/01/07 00:42:23;;;;;;;;;;;;;;;0.62;100.00;100863.75;5056859;28;19916;-74
2022/01/07 00:44:49;;;;;;;;;;;;;;;0.57;100.00;100862.28;5042952;22;19925;-75
2022/01/07 00:47:16;;;;;;;;;;;;;;;0.57;100.00;100854.47;5034944;28;19921;-74
2022/01/07 00:49:42;;;;;;;;;;;;;;;0.43;100.00;100852.47;5037154;28;19921;-74
2022/01/07 00:52:08;;;;;;;;;;;;;;;0.50;100.00;100847.84;5035429;28;19978;-74
2022/01/07 00:54:36;;;;;;;;;;;;;;;0.62;100.00;100835.16;5019582;28;19917;-74
2022/01/07 00:57:02;;;;;;;;;;;;;;;0.41;100.00;100838.72;5036872;28;19928;-75
2022/01/07 00:59:27;;;;;;;;;;;;;;;0.62;100.00;100832.56;5037306;28;19924;-75
2022/01/07 01:01:53;;;;;;;;;;;;;;;0.59;100.00;100821.44;5052380;28;19953;-75
2022/01/07 01:04:19;;;;;;;;;;;;;;;0.77;100.00;100823.22;5018653;28;20332;-74
2022/01/07 01:06:47;;;;;;;;;;;;;;;0.53;100.00;100824.34;5035219;28;19960;-74
2022/01/07 01:09:13;;;;;;;;;;;;;;;0.51;100.00;100819.19;5016731;23;20342;-74
2022/01/07 01:11:39;;;;;;;;;;;;;;;0.57;100.00;100808.53;5037062;28;19925;-74
2022/01/07 01:14:05;;;;;;;;;;;;;;;0.60;100.00;100804.97;5002636;28;19925;-74
2022/01/07 01:16:31;;;;;;;;;;;;;;;0.59;100.00;100806.72;5002704;28;19917;-75
2022/01/07 01:18:57;;;;;;;;;;;;;;;0.73;100.00;100806.09;5016774;23;19974;-76
2022/01/07 01:21:22;;;;;;;;;;;;;;;0.52;100.00;100801.84;5036169;28;19927;-75
2022/01/07 01:23:51;;;;;;;;;;;;;;;0.67;100.00;100795.97;5018261;28;20320;-74
2022/01/07 01:26:23;;;;;;;;;;;;;;;0.58;100.00;100797.22;5034596;28;19971;-75
2022/01/07 01:28:48;;;;;;;;;;;;;;;0.68;100.00;100804.59;5034583;28;19913;-74
2022/01/07 01:31:16;;;;;;;;;;;;;;;0.51;100.00;100785.44;5034965;28;20295;-74
2022/01/07 01:33:42;;;;;;;;;;;;;;;0.53;100.00;100777.56;5018174;28;19920;-74
2022/01/07 01:36:09;;;;;;;;;;;;;;;0.46;100.00;100778.75;5045484;23;20021;-74
2022/01/07 01:38:34;;;;;;;;;;;;;;;0.53;100.00;100767.19;5037702;28;19925;-74
2022/01/07 01:41:00;;;;;;;;;;;;;;;0.58;100.00;100770.41;5016726;28;19925;-75
2022/01/07 01:43:26;;;;;;;;;;;;;;;0.49;100.00;100766.47;5018739;28;19917;-76
2022/01/07 01:46:11;;;;;;;;;;;;;;;0.60;100.00;100758.19;5021371;28;19929;-75
2022/01/07 01:48:43;;;;;;;;;;;;;;;0.63;100.00;100755.44;5034571;28;20012;-74
2022/01/07 01:51:09;;;;;;;;;;;;;;;0.59;100.00;100770.34;5035617;28;19917;-73
2022/01/07 01:53:35;;;;;;;;;;;;;;;0.68;100.00;100768.22;5017927;28;19924;-74
2022/01/07 01:56:00;;;;;;;;;;;;;;;0.60;100.00;100761.63;5035942;28;19939;-74
2022/01/07 01:58:26;;;;;;;;;;;;;;;0.49;100.00;100768.22;5035456;28;19924;-75
2022/01/07 02:00:52;;;;;;;;;;;;;;;0.68;100.00;100761.28;5017570;28;19952;-74
2022/01/07 02:03:17;;;;;;;;;;;;;;;0.69;100.00;100757.75;5018230;28;19948;-77
2022/01/07 02:05:44;;;;;;;;;;;;;;;0.60;100.00;100753.81;5001617;28;19923;-73
2022/01/07 02:08:10;;;;;;;;;;;;;;;0.63;100.00;100748.47;5018153;28;19920;-74
2022/01/07 02:10:35;;;;;;;;;;;;;;;0.66;100.00;100754.44;5035723;28;20279;-74
2022/01/07 02:13:00;;;;;;;;;;;;;;;0.63;100.00;100738.06;5017923;28;19917;-74
2022/01/07 02:15:26;;;;;;;;;;;;;;;0.79;100.00;100738.19;5037608;28;19971;-74
2022/01/07 02:17:53;;;;;;;;;;;;;;;0.70;100.00;100736.03;5018001;28;19917;-74
2022/01/07 02:20:20;;;;;;;;;;;;;;;0.71;100.00;100744.69;5035987;28;19917;-74
2022/01/07 02:22:45;;;;;;;;;;;;;;;0.67;100.00;100735.34;5017975;28;19917;-74
2022/01/07 02:25:11;;;;;;;;;;;;;;;0.67;100.00;100728.38;5017112;28;19917;-74
2022/01/07 02:27:38;;;;;;;;;;;;;;;0.78;100.00;100718.34;5034601;28;20355;-74
2022/01/07 02:30:05;;;;;;;;;;;;;;;0.83;100.00;100718.94;5017164;28;20031;-74
2022/01/07 02:32:30;;;;;;;;;;;;;;;0.85;100.00;100705.06;5001098;28;19924;-74
2022/01/07 02:34:56;;;;;;;;;;;;;;;0.87;100.00;100698.84;5034354;28;20032;-74
2022/01/07 02:37:21;;;;;;;;;;;;;;;0.69;100.00;100699.75;5036198;28;19921;-74
2022/01/07 02:39:49;;;;;;;;;;;;;;;0.80;100.00;100692.28;5018016;28;19986;-75
2022/01/07 02:42:14;;;;;;;;;;;;;;;0.80;100.00;100687.91;5035072;28;19917;-74
2022/01/07 02:44:40;;;;;;;;;;;;;;;0.72;100.00;100687.41;5037165;28;19932;-74
2022/01/07 02:47:06;;;;;;;;;;;;;;;0.71;100.00;100696.16;5036924;28;19927;-74
2022/01/07 02:49:31;;;;;;;;;;;;;;;0.79;100.00;100696.59;5021083;28;19917;-74
2022/01/07 02:51:57;;;;;;;;;;;;;;;0.75;100.00;100689.91;5054862;28;19948;-74
2022/01/07 02:54:22;;;;;;;;;;;;;;;0.79;100.00;100686.22;5022911;28;19916;-74
2022/01/07 02:56:48;;;;;;;;;;;;;;;0.79;100.00;100686.22;5057644;28;19939;-75
2022/01/07 02:59:13;;;;;;;;;;;;;;;0.83;100.00;100681.72;5038761;28;19917;-74
2022/01/07 03:01:39;;;;;;;;;;;;;;;0.94;100.00;100686.41;5055131;28;19951;-76
2022/01/07 03:04:05;;;;;;;;;;;;;;;0.86;100.00;100691.97;5020022;28;19921;-74
2022/01/07 03:06:31;;;;;;;;;;;;;;;1.00;100.00;100683.47;5056139;28;19921;-75
2022/01/07 03:08:56;;;;;;;;;;;;;;;0.93;100.00;100682.97;5023111;28;19917;-75
2022/01/07 03:11:23;;;;;;;;;;;;;;;1.01;100.00;100678.22;5020135;28;20001;-73
2022/01/07 03:13:48;;;;;;;;;;;;;;;1.00;100.00;100671.34;5056466;28;19925;-75
2022/01/07 03:16:14;;;;;;;;;;;;;;;1.02;100.00;100668.66;5039417;28;19923;-74
2022/01/07 03:18:39;;;;;;;;;;;;;;;1.06;100.00;100677.16;5058346;28;19999;-74
2022/01/07 03:21:05;;;;;;;;;;;;;;;1.05;100.00;100650.31;5028937;23;19984;-74
2022/01/07 03:23:40;;;;;;;;;;;;;;;1.13;100.00;100652.53;5022401;28;19925;-75
2022/01/07 03:26:06;;;;;;;;;;;;;;;1.18;100.00;100653.13;5045472;28;19917;-74
2022/01/07 03:28:32;;;;;;;;;;;;;;;1.17;100.00;100656.66;5048449;28;19917;-74
2022/01/07 03:30:58;;;;;;;;;;;;;;;1.12;100.00;100637.84;5047671;28;19996;-74
2022/01/07 03:33:23;;;;;;;;;;;;;;;1.13;100.00;100634.31;5043050;28;19967;-74
2022/01/07 03:35:49;;;;;;;;;;;;;;;1.12;100.00;100632.66;5046002;28;19925;-75
2022/01/07 03:38:14;;;;;;;;;;;;;;;1.12;100.00;100643.06;5028002;28;19978;-74
2022/01/07 03:40:39;;;;;;;;;;;;;;;1.12;100.00;100625.69;5020818;28;20375;-74
2022/01/07 03:43:05;;;;;;;;;;;;;;;1.14;100.00;100625.63;5034430;28;19924;-73
2022/01/07 03:45:30;;;;;;;;;;;;;;;1.20;100.00;100628.75;5034616;28;19918;-74
2022/01/07 03:47:56;;;;;;;;;;;;;;;1.19;100.00;100627.06;5032776;28;19913;-74
2022/01/07 03:50:23;;;;;;;;;;;;;;;1.20;100.00;100617.47;5033765;28;19924;-74
2022/01/07 03:52:49;;;;;;;;;;;;;;;1.23;100.00;100610.38;5015951;28;19918;-74
2022/01/07 03:55:15;;;;;;;;;;;;;;;1.30;100.00;100602.25;5032665;28;19920;-74
2022/01/07 03:57:41;;;;;;;;;;;;;;;1.23;100.00;100601.72;5032681;28;19961;-74
2022/01/07 04:00:08;;;;;;;;;;;;;;;1.33;100.00;100604.69;5033667;28;19924;-74
2022/01/07 04:02:34;;;;;;;;;;;;;;;1.25;100.00;100612.91;5032429;28;19917;-74
2022/01/07 04:04:59;;;;;;;;;;;;;;;1.35;100.00;100602.84;5033441;28;20012;-74
2022/01/07 04:07:25;;;;;;;;;;;;;;;1.24;100.00;100590.41;5033165;28;19961;-75
2022/01/07 04:09:50;;;;;;;;;;;;;;;1.26;100.00;100593.75;5033592;28;19917;-75
2022/01/07 04:12:16;;;;;;;;;;;;;;;1.25;100.00;100587.72;5033093;28;19924;-75
2022/01/07 04:14:41;;;;;;;;;;;;;;;1.36;100.00;100586.31;5032953;28;20291;-75
2022/01/07 04:17:07;;;;;;;;;;;;;;;1.41;100.00;100587.78;5048423;28;19917;-75
2022/01/07 04:19:33;;;;;;;;;;;;;;;1.53;100.00;100586.28;5031859;28;20018;-75
2022/01/07 04:21:58;;;;;;;;;;;;;;;1.45;100.00;100567.63;5015277;28;20291;-75
2022/01/07 04:24:24;;;;;;;;;;;;;;;1.49;100.00;100565.72;5036267;28;19928;-75
2022/01/07 04:26:49;;;;;;;;;;;;;;;1.53;100.00;100562.03;5036703;28;19928;-73
2022/01/07 04:29:15;;;;;;;;;;;;;;;1.50;100.00;100559.56;5035257;28;19917;-74
2022/01/07 04:31:40;;;;;;;;;;;;;;;1.39;100.00;100563.59;5036808;28;20379;-74
2022/01/07 04:34:06;;;;;;;;;;;;;;;1.39;100.00;100571.41;5040391;28;19917;-74
2022/01/07 04:36:31;;;;;;;;;;;;;;;1.48;100.00;100564.88;5038357;28;19924;-73
2022/01/07 04:38:56;;;;;;;;;;;;;;;1.48;100.00;100574.41;5035975;28;19916;-73
2022/01/07 04:41:22;;;;;;;;;;;;;;;1.49;100.00;100582.16;5035581;28;19952;-75
2022/01/07 04:43:48;;;;;;;;;;;;;;;1.51;100.00;100585.53;5036972;28;19917;-75
2022/01/07 04:46:14;;;;;;;;;;;;;;;1.57;100.00;100584.38;5018776;28;19917;-75
2022/01/07 04:48:40;;;;;;;;;;;;;;;1.56;100.00;100575.69;5035280;28;19936;-75
2022/01/07 04:51:05;;;;;;;;;;;;;;;1.60;100.00;100576.38;5019080;28;19968;-75
2022/01/07 04:53:30;;;;;;;;;;;;;;;1.56;100.00;100562.69;5035823;28;19924;-75
2022/01/07 04:55:59;;;;;;;;;;;;;;;1.58;100.00;100583.44;5037138;28;19917;-75
2022/01/07 04:58:25;;;;;;;;;;;;;;;1.68;100.00;100584.63;5029949;28;19917;-75
2022/01/07 05:00:50;;;;;;;;;;;;;;;1.79;100.00;100574.47;5030359;28;20021;-76
2022/01/07 05:03:16;;;;;;;;;;;;;;;1.89;100.00;100582.63;5035042;28;19924;-76
2022/01/07 05:05:45;;;;;;;;;;;;;;;1.69;100.00;100580.28;5030109;28;19946;-76
2022/01/07 05:08:10;;;;;;;;;;;;;;;1.72;100.00;100580.94;5025628;28;20011;-76
2022/01/07 05:10:37;;;;;;;;;;;;;;;1.75;100.00;100570.38;5015179;28;19957;-76
2022/01/07 05:13:03;;;;;;;;;;;;;;;1.85;100.00;100575.91;5016684;28;20280;-75
2022/01/07 05:15:28;;;;;;;;;;;;;;;1.75;100.00;100580.78;5032755;28;19931;-74
2022/01/07 05:17:54;;;;;;;;;;;;;;;1.82;100.00;100582.13;4999069;28;19971;-75
2022/01/07 05:20:19;;;;;;;;;;;;;;;1.85;100.00;100578.53;5034475;28;19978;-75
2022/01/07 05:22:45;;;;;;;;;;;;;;;1.77;100.00;100581.53;5017941;28;20110;-74
2022/01/07 05:25:11;;;;;;;;;;;;;;;1.79;100.00;100579.66;5017851;28;19925;-74
2022/01/07 05:27:37;;;;;;;;;;;;;;;1.85;100.00;100578.53;5019875;28;20004;-74
2022/01/07 05:30:03;;;;;;;;;;;;;;;1.85;100.00;100576.75;5037439;28;19998;-74
2022/01/07 05:32:29;;;;;;;;;;;;;;;1.86;100.00;100575.84;5018646;28;19963;-74
2022/01/07 05:34:55;;;;;;;;;;;;;;;1.85;100.00;100568.94;5035193;28;19917;-74
2022/01/07 05:37:20;;;;;;;;;;;;;;;1.87;100.00;100566.25;5035613;28;20016;-74
2022/01/07 05:39:45;;;;;;;;;;;;;;;1.92;100.00;100564.22;5001570;28;20370;-74
2022/01/07 05:42:11;;;;;;;;;;;;;;;1.87;100.00;100574.06;5014713;28;19917;-74
2022/01/07 05:44:40;;;;;;;;;;;;;;;1.95;100.00;100568.44;5037946;28;19975;-75
2022/01/07 05:47:06;;;;;;;;;;;;;;;2.03;100.00;100567.09;5041758;28;20359;-74
2022/01/07 05:49:32;;;;;;;;;;;;;;;1.96;100.00;100572.72;5035900;28;20053;-74
2022/01/07 05:51:58;;;;;;;;;;;;;;;1.96;100.00;100568.34;5043065;28;20007;-74
2022/01/07 05:54:23;;;;;;;;;;;;;;;2.04;100.00;100567.91;5007098;28;19928;-74
2022/01/07 05:56:49;;;;;;;;;;;;;;;2.01;100.00;100555.09;5020620;28;19945;-74
2022/01/07 05:59:15;;;;;;;;;;;;;;;2.01;100.00;100555.09;5019916;28;19917;-74
2022/01/07 06:01:41;;;;;;;;;;;;;;;2.12;100.00;100563.16;5039525;28;19927;-74
2022/01/07 06:04:06;;;;;;;;;;;;;;;2.18;100.00;100559.34;5002494;28;19917;-74
2022/01/07 06:06:32;;;;;;;;;;;;;;;2.18;100.00;100573.22;5035821;28;19920;-77
2022/01/07 06:08:57;;;;;;;;;;;;;;;2.24;100.00;100561.63;5030992;28;20012;-77
2022/01/07 06:11:23;;;;;;;;;;;;;;;2.37;100.00;100559.16;5034987;28;19967;-75
2022/01/07 06:13:49;;;;;;;;;;;;;;;2.33;100.00;100560.25;5037111;28;19936;-78
2022/01/07 06:16:15;;;;;;;;;;;;;;;2.28;100.00;100560.53;5040705;28;19921;-75
2022/01/07 06:18:50;;;;;;;;;;;;;;;2.33;100.00;100561.09;5037824;28;20375;-78
2022/01/07 06:21:16;;;;;;;;;;;;;;;2.38;100.00;100560.84;5020736;28;20391;-75
2022/01/07 06:23:42;;;;;;;;;;;;;;;2.40;100.00;100558.97;5016680;28;19921;-76
2022/01/07 06:26:07;;;;;;;;;;;;;;;2.33;100.00;100557.66;5051805;28;19928;-76
2022/01/07 06:28:33;;;;;;;;;;;;;;;2.34;100.00;100565.41;5019598;28;19913;-77
2022/01/07 06:30:58;;;;;;;;;;;;;;;2.45;100.00;100556.94;5045637;28;20016;-76
2022/01/07 06:33:25;;;;;;;;;;;;;;;2.44;100.00;100561.31;5018463;28;19920;-76
2022/01/07 06:35:53;;;;;;;;;;;;;;;2.41;100.00;100568.50;5027637;28;19916;-77
2022/01/07 06:38:18;;;;;;;;;;;;;;;2.49;100.00;100569.72;5021363;28;19921;-77
2022/01/07 06:40:44;;;;;;;;;;;;;;;2.52;100.00;100568.69;5040535;28;19924;-81
2022/01/07 06:43:10;;;;;;;;;;;;;;;2.50;100.00;100568.81;5039506;28;19925;-78
2022/01/07 06:45:35;;;;;;;;;;;;;;;2.44;100.00;100574.34;5045208;28;19943;-76
2022/01/07 06:48:01;;;;;;;;;;;;;;;2.51;100.00;100562.66;5009869;28;19980;-76
2022/01/07 06:50:26;;;;;;;;;;;;;;;2.59;100.00;100563.97;5023737;28;20256;-75
2022/01/07 06:52:52;;;;;;;;;;;;;;;2.50;100.00;100567.97;5045359;28;19917;-77
2022/01/07 06:55:18;;;;;;;;;;;;;;;2.46;100.00;100574.28;5043461;28;19959;-79
2022/01/07 06:57:43;;;;;;;;;;;;;;;2.46;100.00;100574.28;5038317;28;19925;-79
2022/01/07 07:00:09;;;;;;;;;;;;;;;2.59;100.00;100570.06;5053525;28;19913;-77
2022/01/07 07:02:34;;;;;;;;;;;;;;;2.60;100.00;100573.50;5066790;28;19917;-76
2022/01/07 07:05:02;;;;;;;;;;;;;;;2.47;100.00;100574.16;5035441;28;22385;-75
2022/01/07 07:07:28;;;;;;;;;;;;;;;2.58;100.00;100564.91;5036629;28;19924;-76
2022/01/07 07:09:57;;;;;;;;;;;;;;;2.61;100.00;100563.00;5054228;28;19921;-75
2022/01/07 07:12:22;;;;;;;;;;;;;;;2.43;100.00;100554.44;5053579;28;19944;-77
2022/01/07 07:14:47;;;;;;;;;;;;;;;2.38;100.00;100556.44;5068514;28;19921;-76
2022/01/07 07:17:14;;;;;;;;;;;;;;;2.46;100.00;100551.66;5073372;28;19989;-74
2022/01/07 07:19:40;;;;;;;;;;;;;;;2.44;100.00;100555.28;5053743;28;19962;-76
2022/01/07 07:22:05;;;;;;;;;;;;;;;2.43;100.00;100553.59;5052325;28;19982;-74
2022/01/07 07:24:30;;;;;;;;;;;;;;;2.38;100.00;100545.19;5051847;28;19952;-73
2022/01/07 07:29:30;;;;;;;37.35;19.92;;;;;;;2.27;100.00;100548.41;5181608;27;20427;-76
2022/01/07 07:31:57;;;;;;;30.77;15.35;;;;;;;2.37;100.00;100580.00;5145837;27;20054;-77
2022/01/07 07:37:08;;;;;;;36.75;16.67;;;;;;;1.80;100.00;100474.63;5166510;27;20019;-76
2022/01/07 07:39:34;;;;;;;31.48;15.70;;;;;;;1.83;100.00;100468.41;5148943;27;20022;-77
2022/01/07 07:42:00;;;;;;;41.42;18.92;;;;;;;2.08;100.00;100514.75;5146653;27;20481;-76
2022/01/07 07:44:25;;;;;;;33.08;15.80;;;;;;;1.99;100.00;100504.84;5166257;27;20072;-77
2022/01/07 07:46:52;;;;;;;28.00;12.95;;;;;;;2.27;100.00;100557.09;5146914;27;20052;-76
2022/01/07 07:49:18;;;;;;;26.98;12.73;;;;;;;2.21;100.00;100551.38;5153617;27;20088;-76
2022/01/07 07:51:46;;;;;;;27.40;12.75;;;;;;;2.05;100.00;100551.38;5134289;27;20494;-75
2022/01/07 07:54:12;;;;;;;26.10;12.35;;;;;;;1.76;100.00;100496.53;5138893;27;20489;-76
2022/01/07 07:56:38;;;;;;;26.38;13.25;;;;;;;2.36;100.00;100576.53;5143216;27;20049;-75
2022/01/07 07:59:04;;;;;;;30.40;13.45;;;;;;;2.30;100.00;100575.13;5120726;27;20102;-75
2022/01/07 08:01:30;;;;;;;28.90;14.65;;;;;;;2.24;100.00;100591.09;5163560;27;20019;-78
2022/01/07 08:03:56;;;;;;;33.85;12.32;;;;;;;1.73;100.00;100498.50;5147994;27;20393;-78
2022/01/07 08:06:30;;;;;;;25.83;12.02;;;;;;;1.48;100.00;100463.41;5160264;27;20076;-79
2022/01/07 08:08:56;;;;;;;21.02;9.30;;;;;;;2.15;100.00;100583.81;5128640;28;20034;-76
2022/01/07 08:11:24;;;;;;;33.10;14.60;;;;;;;1.74;100.00;100500.16;5099265;28;20032;-77
2022/01/07 08:16:34;;;;;;;12.45;5.07;;;;;;;2.01;100.00;100601.97;5116345;28;20035;-76
2022/01/07 08:19:00;;;;;;;25.63;9.60;;;;;;;0.75;100.00;100400.53;5137088;27;20027;-74
2022/01/07 08:21:28;;;;;;;14.57;4.93;;;;;;;1.18;100.00;100482.31;5118436;28;20031;-74
2022/01/07 08:23:55;;;;;;;17.05;6.07;;;;;;;1.23;100.00;100480.31;5115653;27;20055;-74
2022/01/07 08:26:22;;;;;;;18.48;6.97;;;;;;;1.94;100.00;100578.00;5114819;28;20045;-76
2022/01/07 08:28:52;;;;;;;18.80;7.22;;;;;;;1.71;100.00;100558.44;5113587;28;20127;-76
2022/01/07 08:36:34;;;;;;;20.70;9.65;;;;;;;1.90;100.00;100560.03;5131553;28;20031;-76
2022/01/07 08:39:00;;;;;;;25.33;9.60;;;;;;;1.49;100.00;100487.66;5129197;28;20423;-77
2022/01/07 08:41:32;;;;;;;23.10;11.07;;;;;;;1.93;100.00;100536.44;5119957;28;20089;-76
2022/01/07 08:43:58;;;;;;;23.30;11.00;;;;;;;2.00;100.00;100545.56;5102770;28;20020;-78
2022/01/07 08:46:24;;;;;;;21.77;9.60;;;;;;;1.74;100.00;100494.94;5122045;28;20392;-79
2022/01/07 08:48:50;;;;;;;26.88;8.82;;;;;;;2.16;100.00;100556.84;5107671;28;20020;-77
2022/01/07 08:51:16;;;;;;;26.30;10.52;;;;;;;2.28;100.00;100534.47;5101237;28;20148;-77
2022/01/07 08:53:42;;;;;;;22.80;7.72;;;;;;;2.01;100.00;100540.28;5118888;28;20027;-77
2022/01/07 08:56:08;;;;;;;17.10;7.18;;;;;;;1.67;100.00;100466.66;5122762;27;20030;-75
2022/01/07 08:58:34;;;;;;;25.00;7.88;;;;;;;2.22;100.00;100566.91;5126196;27;20462;-77
2022/01/07 09:01:00;;;;;;;18.05;7.05;;;;;;;2.27;100.00;100569.25;5092427;28;20030;-77
2022/01/07 09:03:26;;;;;;;17.77;7.50;;;;;;;2.15;100.00;100533.47;5121127;27;20655;-75
2022/01/07 09:05:55;;;;;;;20.85;6.03;;;;;;;1.83;100.00;100497.88;5094584;27;20042;-74
2022/01/07 09:08:22;;;;;;;19.60;6.80;;;;;;;2.21;100.00;100582.63;5128176;27;20500;-77
2022/01/07 09:10:48;;;;;;;22.08;5.80;;;;;;;2.27;100.00;100570.13;5110431;27;20377;-77
2022/01/07 09:13:13;;;;;;;15.63;6.20;;;;;;;2.17;100.00;100561.13;5136079;27;20042;-78
2022/01/07 09:15:39;;;;;;;19.42;5.30;;;;;;;1.88;100.00;100518.44;5155656;27;20019;-79
2022/01/07 09:18:10;;;;;;;12.93;4.80;;;;;;;2.23;100.00;100604.25;5119633;27;20035;-78
2022/01/07 09:20:40;;;;;;;16.13;4.10;;;;;;;1.25;100.00;100454.22;5115109;27;20065;-78
2022/01/07 09:23:07;;;;;;;10.52;2.85;;;;;;;1.91;100.00;100574.72;5092357;27;20035;-76
2022/01/07 09:25:32;;;;;;;15.45;3.03;;;;;;;2.00;100.00;100623.69;5121717;27;20019;-76
2022/01/07 09:28:02;;;;;;;15.55;2.67;;;;;;;1.21;100.00;100468.31;5108515;28;20393;-75
2022/01/07 09:30:27;;;;;;;48.30;14.57;;;;;;;1.03;100.00;100442.34;5106736;28;20032;-74
2022/01/07 09:32:53;;;;;;;14.35;2.58;;;;;;;1.45;100.00;100493.03;5127435;27;20103;-75
2022/01/07 09:35:19;;;;;;;16.38;2.38;;;;;;;1.21;100.00;100497.75;5119306;28;20497;-76
2022/01/07 09:37:45;;;;;;;9.25;2.15;;;;;;;1.41;100.00;100507.13;5095950;27;20023;-75
2022/01/07 09:40:12;;;;;;;11.80;1.67;;;;;;;1.80;100.00;100573.56;5108692;27;20094;-75
2022/01/07 09:42:39;;;;;;;13.40;2.30;;;;;;;1.83;100.00;100577.75;5104714;27;20476;-74
2022/01/07 09:45:05;;;;;;;12.55;1.92;;;;;;;1.93;100.00;100572.88;5117529;27;20032;-74
2022/01/07 09:47:31;;;;;;;11.43;1.92;;;;;;;1.65;100.00;100549.19;5124904;27;20481;-77
2022/01/07 09:49:58;;;;;;;10.27;1.85;;;;;;;1.33;100.00;100511.03;5115093;28;20047;-75
2022/01/07 09:52:26;;;;;;;12.23;2.20;;;;;;;1.78;100.00;100562.38;5098805;28;20047;-75
2022/01/07 09:54:52;;;;;;;15.50;2.38;;;;;;;1.81;100.00;100562.22;5115549;28;20020;-80
2022/01/07 09:57:17;;;;;;;14.15;2.25;;;;;;;1.27;100.00;100472.34;5108098;28;20068;-78
2022/01/07 09:59:52;;;;;;;11.48;1.67;;;;;;;1.50;100.00;100497.13;5099590;28;20024;-76
2022/01/07 10:02:17;;;;;;;10.95;2.75;;;;;;;1.55;100.00;100498.56;5100189;28;20034;-78
2022/01/07 10:04:45;;;;;;;10.13;3.17;;;;;;;1.79;100.00;100550.19;5106090;28;20041;-78
2022/01/07 10:07:32;;;;;;;12.50;3.65;;;;;;;2.03;100.00;100581.88;5109808;27;20091;-77
2022/01/07 10:10:10;;;;;;;13.07;3.65;;;;;;;1.46;100.00;100441.81;5110917;27;20091;-79
2022/01/07 10:13:03;;;;;;;26.23;10.57;;;;;;;2.21;100.00;100557.41;5101369;27;20027;-77
2022/01/07 10:15:31;;;;;;;14.45;4.50;;;;;;;2.12;100.00;100544.91;5102723;27;20023;-77
2022/01/07 10:18:00;;;;;;;15.93;4.35;;;;;;;1.81;100.00;100462.44;5104264;27;20553;-76
2022/01/07 10:20:32;;;;;;;14.90;5.10;;;;;;;1.36;100.00;100375.59;5105825;27;20095;-76
2022/01/07 10:23:07;;;;;;;15.05;5.53;;;;;;;2.06;100.00;100448.88;5121705;27;20072;-76
2022/01/07 10:25:37;;;;;;;12.18;5.03;;;;;;;2.66;100.00;100537.47;5121202;27;20030;-77
2022/01/07 10:28:06;;;;;;;21.42;5.72;;;;;;;1.80;100.00;100426.94;5121999;27;20519;-79
2022/01/07 10:30:39;;;;;;;12.90;5.80;;;;;;;2.56;100.00;100561.56;5109133;27;20039;-76
2022/01/07 10:33:29;;;;;;;17.08;5.70;;;;;;;2.41;100.00;100564.13;5123436;27;20019;-76
2022/01/07 10:36:08;;;;;;;18.00;4.57;;;;;;;2.41;100.00;100547.66;5123034;27;20122;-75
2022/01/07 10:38:44;;;;;;;15.15;4.50;;;;;;;2.46;100.00;100551.66;5122240;27;20078;-75
2022/01/07 10:41:10;;;;;;;18.00;4.20;;;;;;;2.41;100.00;100521.59;5104936;27;20047;-76
2022/01/07 10:43:38;;;;;;;11.60;2.83;;;;;;;2.71;100.00;100550.25;5105619;27;20026;-76
2022/01/07 10:46:25;;;;;;;11.00;2.33;;;;;;;2.70;100.00;100544.19;5106278;27;20144;-77
2022/01/07 10:49:02;;;;;;;9.60;2.13;;;;;;;1.54;100.00;100352.91;5129813;27;20051;-77
2022/01/07 10:51:41;;;;;;;12.48;2.25;;;;;;;2.66;100.00;100542.69;5105724;28;20090;-77
2022/01/07 10:54:10;;;;;;;8.98;1.92;;;;;;;2.38;100.00;100487.88;5109861;27;20062;-78
2022/01/07 10:56:47;;;;;;;13.20;2.22;;;;;;;2.30;100.00;100477.91;5094695;28;20019;-80
2022/01/07 10:59:18;;;;;;;16.88;2.38;;;;;;;2.78;100.00;100542.91;5105997;28;20020;-78
2022/01/07 11:02:01;;;;;;;9.77;1.65;;;;;;;1.63;100.00;100358.41;5105768;22;20087;-80
2022/01/07 11:04:46;;;;;;;13.48;2.45;;;;;;;3.03;100.00;100548.34;5063971;28;20096;-79
2022/01/07 11:07:12;;;;;;;9.93;2.13;;;;;;;2.14;100.00;100410.22;5071839;28;20096;-78
2022/01/07 11:09:38;;;;;;;14.60;2.00;;;;;;;2.46;100.00;100457.00;5073492;28;20032;-78
2022/01/07 11:12:06;;;;;;;12.57;2.25;;;;;;;2.45;100.00;100413.59;5063359;28;20044;-76
2022/01/07 11:14:35;;;;;;;12.02;2.00;;;;;;;2.99;100.00;100478.19;5071348;28;20021;-78
2022/01/07 11:17:08;;;;;;;10.02;2.35;;;;;;;3.06;100.00;100445.59;5070294;28;20139;-76
2022/01/07 11:19:37;;;;;;;15.95;2.65;;;;;;;3.52;100.00;100540.16;5088316;28;20032;-77
2022/01/07 11:22:04;;;;;;;10.95;2.00;;;;;;;3.50;100.00;100531.59;5557617;22;20464;-75
2022/01/07 11:24:42;;;;;;;22.20;2.35;;;;;;;3.63;100.00;100542.09;5054919;28;20037;-75
2022/01/07 11:27:16;;;;;;;12.00;1.77;;;;;;;3.46;100.00;100548.38;5051886;28;20020;-77
2022/01/07 11:30:25;;;;;;;;;;;;;;;;;;;;;
2022/01/07 11:33:16;;;;;;;13.13;2.30;;;;;;;3.22;100.00;100514.16;5060875;28;20082;-76
2022/01/07 11:35:44;;;;;;;10.80;2.08;;;;;;;4.26;100.00;100521.59;5056491;28;20025;-75
2022/01/07 11:38:15;;;;;;;18.25;2.30;;;;;;;5.17;100.00;100475.31;5074676;28;20619;-75
2022/01/07 11:40:40;;;;;;;15.05;2.17;;;;;;;5.98;100.00;100509.84;5059872;28;20042;-77
2022/01/07 11:43:31;;;;;;;11.00;2.40;;;;;;;6.63;100.00;100480.53;5073623;28;20091;-77
2022/01/07 11:48:45;;;;;;;14.10;2.05;;;;;;;5.93;100.00;100483.94;5405893;22;20081;-78
2022/01/07 11:51:14;;;;;;;15.30;2.30;;;;;;;5.30;100.00;100516.38;5002254;28;20029;-77
2022/01/07 11:53:39;;;;;;;15.48;2.10;;;;;;;4.70;100.00;100523.91;5002573;28;20053;-77
2022/01/07 11:56:07;;;;;;;12.65;2.08;;;;;;;4.14;100.00;100466.56;4985053;28;20026;-77
2022/01/07 11:58:42;;;;;;;15.43;1.75;;;;;;;3.09;100.00;100323.63;5017990;28;20436;-77
2022/01/07 12:01:29;;;;;;;16.42;2.45;;;;;;;3.69;100.00;100450.31;4984050;28;20431;-77
2022/01/07 12:03:57;;;;;;;16.35;1.90;;;;;;;3.39;100.00;100441.84;4999613;28;20025;-76
2022/01/07 12:06:23;;;;;;;12.02;1.90;;;;;;;3.82;100.00;100527.91;5001396;28;20030;-77
2022/01/07 12:09:05;;;;;;;25.50;7.07;;;;;;;3.72;100.00;100530.25;4984090;28;20041;-74
2022/01/07 12:11:41;;;;;;;10.10;2.42;;;;;;;3.64;100.00;100530.72;4977852;28;20495;-75
2022/01/07 12:14:19;;;;;;;7.97;1.77;;;;;;;3.79;100.00;100536.75;4993331;28;20025;-77
2022/01/07 12:16:49;;;;;;;9.63;1.80;;;;;;;4.06;100.00;100517.66;4998417;28;20120;-77
2022/01/07 12:19:18;;;;;;;12.63;1.55;;;;;;;3.95;100.00;100528.78;5019694;28;20022;-76
2022/01/07 12:21:58;;;;;;;12.68;2.15;;;;;;;3.78;100.00;100534.25;5004555;28;20537;-78
2022/01/07 12:24:31;;;;;;;11.68;2.28;;;;;;;3.01;100.00;100403.31;5002532;28;20108;-78